sensor_id;sensor_type;location;lat;lon;timestamp;P1;durP1;ratioP1;P2;durP2;ratioP2
20855;SDS011;63058;49.424;8.420;2023-07-16T15:20:18;3.45;;;1.42;;
20855;SDS011;63058;49.424;8.420;2023-07-16T15:22:45;3.38;;;1.83;;
20855;SDS011;63058;49.424;8.420;2023-07-16T15:25:11;3.05;;;1.80;;
20855;SDS011;63058;49.424;8.420;2023-07-16T15:27:37;3.20;;;1.75;;
20855;SDS011;63058;49.424;8.420;2023-07-16T15:30:09;2.78;;;1.98;;
20855;SDS011;63058;49.424;8.420;2023-07-16T15:32:35;2.67;;;1.60;;
20855;SDS011;63058;49.424;8.420;2023-07-16T15:35:01;2.70;;;1.67;;
20855;SDS011;63058;49.424;8.420;2023-07-16T15:37:28;4.10;;;1.70;;
20855;SDS011;63058;49.424;8.420;2023-07-16T15:39:53;4.40;;;1.90;;
20855;SDS011;63058;49.424;8.420;2023-07-16T15:42:19;3.08;;;1.98;;
20855;SDS011;63058;49.424;8.420;2023-07-16T15:44:45;1.90;;;1.42;;
20855;SDS011;63058;49.424;8.420;2023-07-16T15:47:11;3.47;;;2.03;;
20855;SDS011;63058;49.424;8.420;2023-07-16T15:49:39;2.80;;;1.60;;
20855;SDS011;63058;49.424;8.420;2023-07-16T15:52:05;6.28;;;2.00;;
20855;SDS011;63058;49.424;8.420;2023-07-16T15:54:31;3.78;;;2.15;;
20855;SDS011;63058;49.424;8.420;2023-07-16T15:56:56;3.08;;;1.80;;
20855;SDS011;63058;49.424;8.420;2023-07-16T15:59:22;3.22;;;1.60;;
20855;SDS011;63058;49.424;8.420;2023-07-16T16:01:48;2.95;;;1.80;;
20855;SDS011;63058;49.424;8.420;2023-07-16T16:04:13;3.28;;;1.80;;
20855;SDS011;63058;49.424;8.420;2023-07-16T16:06:39;2.95;;;2.03;;
20855;SDS011;63058;49.424;8.420;2023-07-16T16:09:04;6.10;;;2.10;;
20855;SDS011;63058;49.424;8.420;2023-07-16T16:11:30;4.13;;;1.85;;
20855;SDS011;63058;49.424;8.420;2023-07-16T16:13:56;3.22;;;1.88;;
20855;SDS011;63058;49.424;8.420;2023-07-16T16:16:22;1.98;;;1.40;;
20855;SDS011;63058;49.424;8.420;2023-07-16T16:18:48;3.97;;;1.92;;
20855;SDS011;63058;49.424;8.420;2023-07-16T16:21:17;5.57;;;1.75;;
20855;SDS011;63058;49.424;8.420;2023-07-16T16:23:42;3.30;;;1.80;;
20855;SDS011;63058;49.424;8.420;2023-07-16T16:26:08;3.72;;;1.95;;
20855;SDS011;63058;49.424;8.420;2023-07-16T16:28:42;4.30;;;2.03;;
20855;SDS011;63058;49.424;8.420;2023-07-16T16:31:07;3.50;;;1.65;;
20855;SDS011;63058;49.424;8.420;2023-07-16T16:33:33;4.57;;;1.95;;
20855;SDS011;63058;49.424;8.420;2023-07-16T16:39:03;3.38;;;1.52;;
20855;SDS011;63058;49.424;8.420;2023-07-16T16:41:34;2.80;;;1.70;;
20855;SDS011;63058;49.424;8.420;2023-07-16T16:43:59;4.20;;;1.70;;
20855;SDS011;63058;49.424;8.420;2023-07-16T16:46:25;4.25;;;1.98;;
20855;SDS011;63058;49.424;8.420;2023-07-16T16:48:56;3.85;;;1.90;;
20855;SDS011;63058;49.424;8.420;2023-07-16T16:51:26;4.80;;;2.47;;
20855;SDS011;63058;49.424;8.420;2023-07-16T16:54:03;6.00;;;3.63;;
20855;SDS011;63058;49.424;8.420;2023-07-16T16:56:28;12.07;;;9.20;;
20855;SDS011;63058;49.424;8.420;2023-07-16T16:58:54;6.65;;;4.93;;
20855;SDS011;63058;49.424;8.420;2023-07-16T17:01:20;6.93;;;4.00;;
20855;SDS011;63058;49.424;8.420;2023-07-16T17:03:45;16.80;;;9.63;;
20855;SDS011;63058;49.424;8.420;2023-07-16T17:06:12;16.10;;;10.35;;
20855;SDS011;63058;49.424;8.420;2023-07-16T17:08:37;12.55;;;8.10;;
20855;SDS011;63058;49.424;8.420;2023-07-16T17:11:03;7.80;;;5.65;;
20855;SDS011;63058;49.424;8.420;2023-07-16T17:13:29;5.78;;;3.35;;
20855;SDS011;63058;49.424;8.420;2023-07-16T17:15:54;3.70;;;2.30;;
20855;SDS011;63058;49.424;8.420;2023-07-16T17:18:20;4.65;;;1.95;;
20855;SDS011;63058;49.424;8.420;2023-07-16T17:20:46;4.47;;;2.28;;
20855;SDS011;63058;49.424;8.420;2023-07-16T17:23:13;4.32;;;1.80;;
20855;SDS011;63058;49.424;8.420;2023-07-16T17:25:38;4.43;;;1.88;;
20855;SDS011;63058;49.424;8.420;2023-07-16T17:28:04;3.28;;;1.90;;
20855;SDS011;63058;49.424;8.420;2023-07-16T17:30:31;3.80;;;2.17;;
20855;SDS011;63058;49.424;8.420;2023-07-16T17:32:57;2.70;;;1.80;;
20855;SDS011;63058;49.424;8.420;2023-07-16T17:35:23;2.97;;;1.88;;
20855;SDS011;63058;49.424;8.420;2023-07-16T17:37:48;3.38;;;1.90;;
20855;SDS011;63058;49.424;8.420;2023-07-16T17:40:14;3.05;;;2.10;;
20855;SDS011;63058;49.424;8.420;2023-07-16T17:42:40;7.35;;;1.92;;
20855;SDS011;63058;49.424;8.420;2023-07-16T17:45:06;4.38;;;1.85;;
20855;SDS011;63058;49.424;8.420;2023-07-16T17:47:33;3.05;;;1.85;;
20855;SDS011;63058;49.424;8.420;2023-07-16T17:49:58;2.58;;;1.85;;
20855;SDS011;63058;49.424;8.420;2023-07-16T17:52:24;2.75;;;1.88;;
20855;SDS011;63058;49.424;8.420;2023-07-16T17:54:49;3.65;;;1.65;;
20855;SDS011;63058;49.424;8.420;2023-07-16T17:57:16;3.75;;;1.70;;
20855;SDS011;63058;49.424;8.420;2023-07-16T17:59:43;1.95;;;1.40;;
20855;SDS011;63058;49.424;8.420;2023-07-16T18:02:09;3.80;;;1.77;;
20855;SDS011;63058;49.424;8.420;2023-07-16T18:04:35;2.53;;;1.45;;
20855;SDS011;63058;49.424;8.420;2023-07-16T18:07:01;3.05;;;1.48;;
20855;SDS011;63058;49.424;8.420;2023-07-16T18:09:26;4.10;;;1.70;;
20855;SDS011;63058;49.424;8.420;2023-07-16T18:11:52;3.67;;;1.88;;
20855;SDS011;63058;49.424;8.420;2023-07-16T18:14:21;2.22;;;1.45;;
20855;SDS011;63058;49.424;8.420;2023-07-16T18:16:47;2.67;;;1.50;;
20855;SDS011;63058;49.424;8.420;2023-07-16T18:19:12;3.72;;;1.80;;
20855;SDS011;63058;49.424;8.420;2023-07-16T18:21:38;3.42;;;2.05;;
20855;SDS011;63058;49.424;8.420;2023-07-16T18:24:05;2.88;;;1.92;;
20855;SDS011;63058;49.424;8.420;2023-07-16T18:26:30;3.60;;;1.65;;
20855;SDS011;63058;49.424;8.420;2023-07-16T18:28:58;2.58;;;1.88;;
20855;SDS011;63058;49.424;8.420;2023-07-16T18:31:24;4.05;;;1.90;;
20855;SDS011;63058;49.424;8.420;2023-07-16T18:33:50;4.82;;;1.80;;
20855;SDS011;63058;49.424;8.420;2023-07-16T18:36:17;6.95;;;1.90;;
20855;SDS011;63058;49.424;8.420;2023-07-16T18:38:44;4.15;;;2.00;;
20855;SDS011;63058;49.424;8.420;2023-07-16T18:41:10;4.05;;;1.63;;
20855;SDS011;63058;49.424;8.420;2023-07-16T18:43:36;3.90;;;1.85;;
20855;SDS011;63058;49.424;8.420;2023-07-16T18:46:02;3.58;;;1.77;;
20855;SDS011;63058;49.424;8.420;2023-07-16T18:48:27;3.33;;;1.98;;
20855;SDS011;63058;49.424;8.420;2023-07-16T18:50:55;3.80;;;1.65;;
20855;SDS011;63058;49.424;8.420;2023-07-16T18:53:22;3.05;;;1.30;;
20855;SDS011;63058;49.424;8.420;2023-07-16T18:55:51;5.13;;;1.83;;
20855;SDS011;63058;49.424;8.420;2023-07-16T18:58:17;3.33;;;2.08;;
20855;SDS011;63058;49.424;8.420;2023-07-16T19:00:43;2.47;;;1.55;;
20855;SDS011;63058;49.424;8.420;2023-07-16T19:03:12;2.13;;;1.25;;
20855;SDS011;63058;49.424;8.420;2023-07-16T19:05:38;2.25;;;1.60;;
20855;SDS011;63058;49.424;8.420;2023-07-16T19:08:04;3.67;;;1.42;;
20855;SDS011;63058;49.424;8.420;2023-07-16T19:10:30;5.22;;;1.83;;
20855;SDS011;63058;49.424;8.420;2023-07-16T19:12:56;2.97;;;1.73;;
20855;SDS011;63058;49.424;8.420;2023-07-16T19:15:21;2.53;;;1.67;;
20855;SDS011;63058;49.424;8.420;2023-07-16T19:17:47;2.08;;;1.42;;
20855;SDS011;63058;49.424;8.420;2023-07-16T19:20:15;3.53;;;2.00;;
20855;SDS011;63058;49.424;8.420;2023-07-16T19:22:42;3.17;;;1.75;;
20855;SDS011;63058;49.424;8.420;2023-07-16T19:25:07;2.85;;;1.63;;
20855;SDS011;63058;49.424;8.420;2023-07-16T19:27:33;2.05;;;1.42;;
20855;SDS011;63058;49.424;8.420;2023-07-16T19:30:00;3.63;;;2.00;;
20855;SDS011;63058;49.424;8.420;2023-07-16T19:32:26;3.65;;;1.63;;
20855;SDS011;63058;49.424;8.420;2023-07-16T19:34:52;2.78;;;1.60;;
20855;SDS011;63058;49.424;8.420;2023-07-16T19:37:19;3.40;;;1.75;;
20855;SDS011;63058;49.424;8.420;2023-07-16T19:39:45;3.92;;;1.90;;
20855;SDS011;63058;49.424;8.420;2023-07-16T19:42:10;4.78;;;1.80;;
20855;SDS011;63058;49.424;8.420;2023-07-16T19:44:37;3.90;;;1.58;;
20855;SDS011;63058;49.424;8.420;2023-07-16T19:47:03;4.63;;;1.77;;
20855;SDS011;63058;49.424;8.420;2023-07-16T19:49:30;2.58;;;1.80;;
20855;SDS011;63058;49.424;8.420;2023-07-16T19:51:55;3.03;;;1.90;;
20855;SDS011;63058;49.424;8.420;2023-07-16T19:54:21;2.90;;;1.95;;
20855;SDS011;63058;49.424;8.420;2023-07-16T19:56:47;3.58;;;1.98;;
20855;SDS011;63058;49.424;8.420;2023-07-16T19:59:13;3.97;;;1.90;;
20855;SDS011;63058;49.424;8.420;2023-07-16T20:01:38;3.65;;;2.05;;
20855;SDS011;63058;49.424;8.420;2023-07-16T20:04:04;3.33;;;1.70;;
20855;SDS011;63058;49.424;8.420;2023-07-16T20:06:30;4.82;;;2.10;;
20855;SDS011;63058;49.424;8.420;2023-07-16T20:08:56;2.58;;;1.92;;
20855;SDS011;63058;49.424;8.420;2023-07-16T20:11:22;4.95;;;2.15;;
20855;SDS011;63058;49.424;8.420;2023-07-16T20:13:48;3.45;;;1.98;;
20855;SDS011;63058;49.424;8.420;2023-07-16T20:16:14;3.90;;;1.92;;
20855;SDS011;63058;49.424;8.420;2023-07-16T20:18:39;2.67;;;1.80;;
20855;SDS011;63058;49.424;8.420;2023-07-16T20:21:05;2.47;;;1.70;;
20855;SDS011;63058;49.424;8.420;2023-07-16T20:23:33;3.70;;;2.00;;
20855;SDS011;63058;49.424;8.420;2023-07-16T20:26:05;2.33;;;1.65;;
20855;SDS011;63058;49.424;8.420;2023-07-16T20:28:40;2.63;;;1.65;;
20855;SDS011;63058;49.424;8.420;2023-07-16T20:31:11;2.67;;;1.52;;
20855;SDS011;63058;49.424;8.420;2023-07-16T20:33:37;3.08;;;1.80;;
20855;SDS011;63058;49.424;8.420;2023-07-16T20:36:03;3.45;;;1.95;;
20855;SDS011;63058;49.424;8.420;2023-07-16T20:38:35;3.50;;;1.80;;
20855;SDS011;63058;49.424;8.420;2023-07-16T20:41:12;3.03;;;1.83;;
20855;SDS011;63058;49.424;8.420;2023-07-16T20:43:41;3.47;;;1.90;;
20855;SDS011;63058;49.424;8.420;2023-07-16T20:46:11;2.22;;;1.50;;
20855;SDS011;63058;49.424;8.420;2023-07-16T20:48:46;3.35;;;1.70;;
20855;SDS011;63058;49.424;8.420;2023-07-16T20:51:23;3.53;;;1.98;;
20855;SDS011;63058;49.424;8.420;2023-07-16T20:54:08;3.22;;;1.83;;
20855;SDS011;63058;49.424;8.420;2023-07-16T20:56:38;2.90;;;1.70;;
20855;SDS011;63058;49.424;8.420;2023-07-16T20:59:06;3.28;;;1.52;;
20855;SDS011;63058;49.424;8.420;2023-07-16T21:01:32;2.38;;;1.60;;
20855;SDS011;63058;49.424;8.420;2023-07-16T21:07:20;3.05;;;1.50;;
20855;SDS011;63058;49.424;8.420;2023-07-16T21:09:50;2.90;;;1.92;;
20855;SDS011;63058;49.424;8.420;2023-07-16T21:12:38;2.00;;;1.63;;
20855;SDS011;63058;49.424;8.420;2023-07-16T21:17:56;4.90;;;2.10;;
20855;SDS011;63058;49.424;8.420;2023-07-16T21:20:25;3.75;;;2.05;;
20855;SDS011;63058;49.424;8.420;2023-07-16T21:22:52;5.38;;;1.98;;
20855;SDS011;63058;49.424;8.420;2023-07-16T21:25:27;2.88;;;1.85;;
20855;SDS011;63058;49.424;8.420;2023-07-16T21:27:59;2.47;;;1.80;;
20855;SDS011;63058;49.424;8.420;2023-07-16T21:30:53;4.18;;;1.88;;
20855;SDS011;63058;49.424;8.420;2023-07-16T21:33:22;3.67;;;2.08;;
20855;SDS011;63058;49.424;8.420;2023-07-16T21:35:47;4.63;;;2.20;;
20855;SDS011;63058;49.424;8.420;2023-07-16T21:38:13;3.72;;;1.77;;
20855;SDS011;63058;49.424;8.420;2023-07-16T21:40:40;2.30;;;1.75;;
20855;SDS011;63058;49.424;8.420;2023-07-16T21:43:06;2.03;;;1.77;;
20855;SDS011;63058;49.424;8.420;2023-07-16T21:45:32;5.15;;;2.05;;
20855;SDS011;63058;49.424;8.420;2023-07-16T21:47:58;2.50;;;2.05;;
20855;SDS011;63058;49.424;8.420;2023-07-16T21:50:27;2.90;;;1.73;;
20855;SDS011;63058;49.424;8.420;2023-07-16T21:53:23;3.72;;;1.85;;
20855;SDS011;63058;49.424;8.420;2023-07-16T21:55:56;2.88;;;1.83;;
20855;SDS011;63058;49.424;8.420;2023-07-16T21:58:31;3.75;;;2.00;;
20855;SDS011;63058;49.424;8.420;2023-07-16T22:00:59;3.42;;;2.00;;
20855;SDS011;63058;49.424;8.420;2023-07-16T22:03:27;2.15;;;1.70;;
20855;SDS011;63058;49.424;8.420;2023-07-16T22:06:15;6.47;;;1.80;;
20855;SDS011;63058;49.424;8.420;2023-07-16T22:08:46;2.65;;;1.70;;
20855;SDS011;63058;49.424;8.420;2023-07-16T22:11:12;2.92;;;1.52;;
20855;SDS011;63058;49.424;8.420;2023-07-16T22:13:41;4.85;;;1.65;;
20855;SDS011;63058;49.424;8.420;2023-07-16T22:16:07;2.42;;;1.60;;
20855;SDS011;63058;49.424;8.420;2023-07-16T22:18:35;3.97;;;1.77;;
20855;SDS011;63058;49.424;8.420;2023-07-16T22:21:08;2.72;;;2.10;;
20855;SDS011;63058;49.424;8.420;2023-07-16T22:23:38;2.72;;;2.08;;
20855;SDS011;63058;49.424;8.420;2023-07-16T22:26:04;2.90;;;1.92;;
20855;SDS011;63058;49.424;8.420;2023-07-16T22:28:29;2.97;;;1.88;;
20855;SDS011;63058;49.424;8.420;2023-07-16T22:30:55;3.63;;;1.98;;
20855;SDS011;63058;49.424;8.420;2023-07-16T22:33:21;3.33;;;2.03;;
20855;SDS011;63058;49.424;8.420;2023-07-16T22:35:47;4.22;;;1.83;;
20855;SDS011;63058;49.424;8.420;2023-07-16T22:38:13;5.18;;;1.98;;
20855;SDS011;63058;49.424;8.420;2023-07-16T22:40:42;2.72;;;1.75;;
20855;SDS011;63058;49.424;8.420;2023-07-16T22:43:09;2.28;;;1.75;;
20855;SDS011;63058;49.424;8.420;2023-07-16T22:45:37;2.97;;;1.83;;
20855;SDS011;63058;49.424;8.420;2023-07-16T22:48:05;1.88;;;1.60;;
20855;SDS011;63058;49.424;8.420;2023-07-16T22:50:32;3.85;;;1.88;;
20855;SDS011;63058;49.424;8.420;2023-07-16T22:52:59;4.70;;;1.80;;
20855;SDS011;63058;49.424;8.420;2023-07-16T22:55:28;3.78;;;2.28;;
20855;SDS011;63058;49.424;8.420;2023-07-16T22:57:54;3.15;;;1.90;;
20855;SDS011;63058;49.424;8.420;2023-07-16T23:00:23;3.22;;;2.13;;
20855;SDS011;63058;49.424;8.420;2023-07-16T23:02:52;2.65;;;1.70;;
20855;SDS011;63058;49.424;8.420;2023-07-16T23:05:18;4.95;;;1.77;;
20855;SDS011;63058;49.424;8.420;2023-07-16T23:07:45;4.82;;;2.28;;
20855;SDS011;63058;49.424;8.420;2023-07-16T23:10:11;2.80;;;1.90;;
20855;SDS011;63058;49.424;8.420;2023-07-16T23:12:37;2.50;;;2.00;;
20855;SDS011;63058;49.424;8.420;2023-07-16T23:15:06;4.00;;;1.73;;
20855;SDS011;63058;49.424;8.420;2023-07-16T23:17:35;3.00;;;2.20;;
20855;SDS011;63058;49.424;8.420;2023-07-16T23:20:05;6.38;;;2.25;;
20855;SDS011;63058;49.424;8.420;2023-07-16T23:22:38;3.25;;;1.95;;
20855;SDS011;63058;49.424;8.420;2023-07-16T23:25:07;3.17;;;1.98;;
20855;SDS011;63058;49.424;8.420;2023-07-16T23:27:43;3.40;;;1.63;;
20855;SDS011;63058;49.424;8.420;2023-07-16T23:30:10;3.63;;;2.08;;
20855;SDS011;63058;49.424;8.420;2023-07-16T23:32:37;3.67;;;1.83;;
20855;SDS011;63058;49.424;8.420;2023-07-16T23:35:08;3.40;;;1.98;;
20855;SDS011;63058;49.424;8.420;2023-07-16T23:37:39;1.88;;;1.67;;
20855;SDS011;63058;49.424;8.420;2023-07-16T23:40:06;3.03;;;1.92;;
20855;SDS011;63058;49.424;8.420;2023-07-16T23:42:36;3.55;;;2.03;;
20855;SDS011;63058;49.424;8.420;2023-07-16T23:45:02;4.25;;;1.83;;
20855;SDS011;63058;49.424;8.420;2023-07-16T23:47:44;3.35;;;1.73;;
20855;SDS011;63058;49.424;8.420;2023-07-16T23:50:15;3.90;;;2.00;;
20855;SDS011;63058;49.424;8.420;2023-07-16T23:52:46;4.07;;;2.33;;
20855;SDS011;63058;49.424;8.420;2023-07-16T23:55:17;2.42;;;1.90;;
20855;SDS011;63058;49.424;8.420;2023-07-16T23:57:46;4.32;;;2.10;;
